Home > Products > Valid Products > MTR

000
SAUS45 KTWC 020153
MTRSAD
METAR KSAD 020151Z AUTO 08014KT 10SM FEW120 28/13 A3001 RMK AO2 PK
WND 07037/0101 LTG DSNT S SLP110 T02780133





000
SAUS45 KTWC 020053
MTRSAD
METAR KSAD 020051Z AUTO 05018G22KT 10SM BKN110 33/10 A2996 RMK AO2
LTG DSNT NE-S SLP090 T03280100





000
SAUS45 KTWC 020043
MTRSAD
SPECI KSAD 020042Z AUTO 05015KT 10SM VCTS FEW110 34/11 A2995 RMK AO2
LTG DSNT NE-S T03390106





000
SAUS45 KTWC 012352
MTRSAD
METAR KSAD 012351Z AUTO 01016G23KT 10SM CLR 33/11 A2995 RMK AO2 PK
WND 02026/2341 LTG DSNT N-SE SLP087 T03280106 10350 20289 56015





000
SAUS45 KTWC 012253
MTRSAD
METAR KSAD 012251Z AUTO 26008KT 10SM CLR 33/12 A2996 RMK AO2 LTG
DSNT NW-NE SLP090 T03330122





000
SAUS45 KTWC 012153
MTRSAD
METAR KSAD 012151Z AUTO 23003KT 10SM CLR 34/12 A2998 RMK AO2 SLP095
T03390117





000
SAUS45 KTWC 012052
MTRSAD
METAR KSAD 012051Z AUTO 26003KT 10SM CLR 33/12 A3000 RMK AO2 LTG
DSNT SW SLP104 T03280117 58030





000
SAUS45 KTWC 011952
MTRSAD
METAR KSAD 011951Z AUTO VRB03KT 10SM CLR 31/14 A3004 RMK AO2 SLP120
T03110139





000
SAUS45 KTWC 011853
MTRSAD
METAR KSAD 011851Z AUTO VRB04KT 10SM CLR 31/16 A3008 RMK AO2 SLP129
T03110156





000
SAUS45 KTWC 011753
MTRSAD
METAR KSAD 011751Z AUTO 14007KT 10SM CLR 29/15 A3010 RMK AO2 SLP138
T02940150 10294 20222 58011





000
SAUS45 KTWC 011653
MTRSAD
METAR KSAD 011651Z AUTO VRB04KT 10SM CLR 28/16 A3012 RMK AO2 SLP143
T02780161





000
SAUS45 KTWC 011552
MTRSAD
METAR KSAD 011551Z AUTO VRB03KT 10SM CLR 26/16 A3013 RMK AO2 SLP146
T02610161





000
SAUS45 KTWC 011452
MTRSAD
METAR KSAD 011451Z AUTO 11007KT 10SM CLR 25/17 A3013 RMK AO2 SLP147
T02500172 51010





000
SAUS45 KTWC 011352
MTRSAD
METAR KSAD 011351Z AUTO 09010KT 10SM CLR 24/17 A3013 RMK AO2 SLP144
T02390172





000
SAUS45 KTWC 011253
MTRSAD
METAR KSAD 011251Z AUTO 09008KT 10SM CLR 22/18 A3012 RMK AO2 SLP141
T02220178





000
SAUS45 KTWC 011152
MTRSAD
METAR KSAD 011151Z AUTO 09008KT 10SM BKN110 22/18 A3010 RMK AO2
RAB1053E01 SLP136 P0000 60001 70002 T02220178 10250 20217 51011





000
SAUS45 KTWC 011053
MTRSAD
METAR KSAD 011051Z AUTO 13007KT 10SM BKN110 22/18 A3010 RMK AO2
RAE17 SLP134 P0000 T02220183





000
SAUS45 KTWC 010952
MTRSAD
METAR KSAD 010951Z AUTO 10005KT 10SM -RA BKN120 22/18 A3008 RMK AO2
RAB0854 SLP131 P0001 T02220183





000
SAUS45 KTWC 010853
MTRSAD
METAR KSAD 010851Z AUTO 05004KT 10SM SCT120 23/18 A3007 RMK AO2
RAE06 SLP125 P0000 60000 T02280183 58015





000
SAUS45 KTWC 010752
MTRSAD
METAR KSAD 010751Z AUTO 29006KT 10SM -RA BKN110 22/18 A3008 RMK AO2
WSHFT 0638 RAB42 SLP133 P0000 T02170183





000
SAUS45 KTWC 010700
MTRSAD
SPECI KSAD 010658Z AUTO 32009G19KT 10SM BKN090 OVC120 24/16 A3012
RMK AO2 WSHFT 0638 T02440156





000
SAUS45 KTWC 010652
MTRSAD
METAR KSAD 010651Z AUTO 30012KT 10SM BKN085 OVC120 24/16 A3012 RMK
AO2 RAE09 SLP145 P0000 T02440161 403560244





000
SAUS45 KTWC 010552
MTRSAD
METAR KSAD 010551Z AUTO 11010G18KT 9SM RA OVC090 24/17 A3011 RMK AO2
PK WND 17030/0520 WSHFT 0528 RAB21 SLP144 P0001 60001 T02440167
10356 20244 51032





000
SAUS45 KTWC 010549
MTRSAD
SPECI KSAD 010548Z AUTO 11011G18KT 9SM RA OVC090 25/16 A3011 RMK AO2
PK WND 17030/0520 WSHFT 0528 RAB21 P0001





000
SAUS45 KTWC 010517
MTRSAD
SPECI KSAD 010516Z AUTO 17023KT 10SM OVC090 27/14 A3009 RMK AO2 PK
WND 17027/0516 WSHFT 0502 LTG DSNT ALQDS T02720139





000
SAUS45 KTWC 010452
MTRSAD
METAR KSAD 010451Z AUTO 06013G26KT 10SM SCT100 BKN110 28/13 A3004
RMK AO2 PK WND 08028/0352 LTG DSNT ALQDS SLP116 T02780133





000
SAUS45 KTWC 010416
MTRSAD
SPECI KSAD 010415Z AUTO 09017G22KT 10SM FEW100 SCT120 27/14 A3001
RMK AO2 PK WND 08028/0352 LTG DSNT N AND SE T02720144





000
SAUS45 KTWC 010352
MTRSAD
METAR KSAD 010351Z AUTO 07023G30KT 10SM VCTS BKN110 29/13 A3001 RMK
AO2 PK WND 08033/0331 WSHFT 0322 LTG DSNT SE SLP107 T02890133





000
SAUS45 KTWC 010337
MTRSAD
SPECI KSAD 010336Z AUTO 08020G32KT 10SM VCTS BKN110 31/11 A3001 RMK
AO2 PK WND 08033/0331 WSHFT 0322 LTG DSNT SE T03110111





000
SAUS45 KTWC 010252
MTRSAD
METAR KSAD 010251Z AUTO 27007KT 10SM CLR 32/12 A2996 RMK AO2 SLP088
T03220117 53004





000
SAUS45 KTWC 010153
MTRSAD
METAR KSAD 010151Z AUTO 28011KT 10SM CLR 33/11 A2995 RMK AO2 SLP080
T03330106





000
SAUS45 KTWC 010052
MTRSAD
METAR KSAD 010051Z AUTO 30013KT 10SM CLR 36/09 A2994 RMK AO2 SLP074
T03560094





000
SAUS45 KTWC 312352
MTRSAD
METAR KSAD 312351Z AUTO 30008KT 10SM CLR 35/11 A2995 RMK AO2 SLP080
T03500111 10356 20294 56024





000
SAUS45 KTWC 312252
MTRSAD
METAR KSAD 312251Z AUTO 30010KT 10SM CLR 35/11 A2997 RMK AO2 SLP085
T03500106





000
SAUS45 KTWC 312152
MTRSAD
METAR KSAD 312151Z AUTO 29010G16KT 10SM CLR 34/11 A2999 RMK AO2
SLP092 T03440111





000
SAUS45 KTWC 312052
MTRSAD
METAR KSAD 312051Z AUTO 29009KT 10SM CLR 34/13 A3003 RMK AO2 SLP103
T03390133 58027





000
SAUS45 KTWC 311952
MTRSAD
METAR KSAD 311951Z AUTO 28005KT 10SM CLR 32/13 A3006 RMK AO2 SLP117
T03220128





000
SAUS45 KTWC 311853
MTRSAD
METAR KSAD 311851Z AUTO 25004KT 10SM CLR 31/12 A3009 RMK AO2 SLP128
T03060122





000
SAUS45 KTWC 311752
MTRSAD
METAR KSAD 311751Z AUTO 20003KT 10SM SCT110 29/13 A3012 RMK AO2
SLP139 60000 T02940133 10300 20250 58001





000
SAUS45 KTWC 311652
MTRSAD
METAR KSAD 311651Z AUTO VRB05KT 10SM CLR 29/14 A3013 RMK AO2 SLP141
T02890144





000
SAUS45 KTWC 311552
MTRSAD
METAR KSAD 311551Z AUTO 09004KT 10SM CLR 27/16 A3013 RMK AO2 RAE1453
SLP144 P0000 T02670161





000
SAUS45 KTWC 311452
MTRSAD
METAR KSAD 311451Z AUTO 13007KT 10SM -RA OVC110 26/16 A3012 RMK AO2
RAB10 SLP140 P0000 60000 T02560161 51023





000
SAUS45 KTWC 311353
MTRSAD
METAR KSAD 311351Z AUTO 16006KT 10SM OVC100 26/14 A3012 RMK AO2
SLP135 T02610139





000
SAUS45 KTWC 311253
MTRSAD
METAR KSAD 311251Z AUTO 17007KT 10SM OVC110 26/13 A3009 RMK AO2
SLP123 T02610133





000
SAUS45 KTWC 311153
MTRSAD
METAR KSAD 311151Z AUTO 15008KT 10SM BKN120 26/13 A3004 RMK AO2 LTG
DSNT SW SLP108 T02610128 10306 20261 53017





000
SAUS45 KTWC 311053
MTRSAD
METAR KSAD 311051Z AUTO 18004KT 10SM CLR 28/12 A3002 RMK AO2 LTG
DSNT N SLP099 T02780117





000
SAUS45 KTWC 310953
MTRSAD
METAR KSAD 310951Z AUTO 33004KT 10SM SCT100 SCT120 28/12 A3001 RMK
AO2 SLP095 T02830117





000
SAUS45 KTWC 310852
MTRSAD
METAR KSAD 310851Z AUTO 32010KT 10SM CLR 30/11 A2999 RMK AO2 SLP087
T03000106 53004





000
SAUS45 KTWC 310752
MTRSAD
METAR KSAD 310751Z AUTO 32011KT 10SM CLR 29/11 A2997 RMK AO2 SLP082
T02940106





000
SAUS45 KTWC 310653
MTRSAD
METAR KSAD 310651Z AUTO 30008KT 10SM CLR 30/10 A2998 RMK AO2 SLP086
T03000100 403940228





000
SAUS45 KTWC 310554
MTRSAD
METAR KSAD 310551Z AUTO 31007KT 10SM CLR 30/10 A2998 RMK AO2 SLP086
T03000100 10389 20300 51011





000
SAUS45 KTWC 310453
MTRSAD
METAR KSAD 310451Z AUTO 29010KT 10SM CLR 32/08 A2997 RMK AO2 SLP082
T03170083





000
SAUS45 KTWC 310353
MTRSAD
METAR KSAD 310351Z AUTO 32009KT 10SM CLR 32/09 A2996 RMK AO2 SLP080
T03220089





000
SAUS45 KTWC 310353
MTRSAD
METAR KSAD 310351Z AUTO 32009KT 10SM CLR 32/09 A2996 RMK AO2 SLP080
T03220089





000
SAUS45 KTWC 310252
MTRSAD
METAR KSAD 310251Z AUTO 30010KT 10SM CLR 34/08 A2994 RMK AO2 SLP075
T03440083 53008





000
SAUS45 KTWC 310152
MTRSAD
METAR KSAD 310151Z AUTO 29014KT 10SM CLR 37/08 A2992 RMK AO2 SLP068
T03670078





000
SAUS45 KTWC 310052
MTRSAD
METAR KSAD 310051Z AUTO 28014G19KT 10SM CLR 38/08 A2990 RMK AO2
SLP064 T03780078





000
SAUS45 KTWC 302352
MTRSAD
METAR KSAD 302351Z AUTO 28013G19KT 10SM CLR 38/07 A2992 RMK AO2 LTG
DSNT S SLP066 T03830072 10394 20344 56019





000
SAUS45 KTWC 302253
MTRSAD
METAR KSAD 302251Z AUTO 28016G22KT 10SM CLR 39/08 A2992 RMK AO2
SLP068 T03890083





000
SAUS45 KTWC 302152
MTRSAD
METAR KSAD 302151Z AUTO 27013G17KT 10SM CLR 38/09 A2995 RMK AO2
SLP078 T03830089





000
SAUS45 KTWC 302054
MTRSAD
METAR KSAD 302051Z AUTO 31010G19KT 10SM CLR 38/09 A2998 RMK AO2
SLP085 T03830089 58021





000
SAUS45 KTWC 301953
MTRSAD
METAR KSAD 301951Z AUTO 24014KT 10SM CLR 38/09 A3000 RMK AO2 SLP094
T03780094





000
SAUS45 KTWC 301853
MTRSAD
METAR KSAD 301851Z AUTO VRB04KT 10SM CLR 36/11 A3002 RMK AO2 SLP101
T03560111





000
SAUS45 KTWC 301752
MTRSAD
METAR KSAD 301751Z AUTO 00000KT 10SM CLR 34/12 A3004 RMK AO2 SLP108
T03440122 10344 20228 58005





000
SAUS45 KTWC 301653
MTRSAD
METAR KSAD 301651Z AUTO VRB03KT 10SM CLR 32/13 A3006 RMK AO2 SLP115
T03220128





000
SAUS45 KTWC 301552
MTRSAD
METAR KSAD 301551Z AUTO 13005KT 10SM CLR 31/13 A3006 RMK AO2 SLP118
T03060128





000
SAUS45 KTWC 301454
MTRSAD
METAR KSAD 301451Z AUTO 00000KT 10SM CLR 28/14 A3006 RMK AO2 SLP117
T02830139 52012





000
SAUS45 KTWC 301354
MTRSAD
METAR KSAD 301351Z AUTO 00000KT 10SM CLR 25/16 A3005 RMK AO2 SLP115
T02500156





000
SAUS45 KTWC 301253
MTRSAD
METAR KSAD 301251Z AUTO 00000KT 10SM CLR 23/17 A3003 RMK AO2 SLP112
T02280172





000
SAUS45 KTWC 301154
MTRSAD
METAR KSAD 301151Z AUTO 00000KT 10SM CLR 24/16 A3002 RMK AO2 SLP104
T02440161 10300 20233 51005





000
SAUS45 KTWC 301054
MTRSAD
METAR KSAD 301051Z AUTO 00000KT 10SM CLR 24/16 A3002 RMK AO2 SLP106
T02390161





000
SAUS45 KTWC 300953
MTRSAD
METAR KSAD 300951Z AUTO 00000KT 10SM CLR 25/16 A3001 RMK AO2 SLP101
T02500156





000
SAUS45 KTWC 300854
MTRSAD
METAR KSAD 300851Z AUTO 00000KT 10SM CLR 26/16 A3000 RMK AO2 SLP098
T02560156 56008 TSNO





000
SAUS45 KTWC 300752
MTRSAD
METAR KSAD 300751Z AUTO 00000KT 10SM CLR 27/14 A3001 RMK AO2 SLP099
T02720144





000
SAUS45 KTWC 300654
MTRSAD
METAR KSAD 300651Z AUTO 35006KT 10SM CLR 28/14 A3002 RMK AO2 SLP102
T02830139 403670228





000
SAUS45 KTWC 300554
MTRSAD
METAR KSAD 300551Z AUTO 01006KT 10SM CLR 30/13 A3003 RMK AO2 SLP106
T03000128 10367 20294 51019





000
SAUS45 KTWC 300453
MTRSAD
METAR KSAD 300451Z AUTO 35006KT 10SM CLR 30/13 A3003 RMK AO2 SLP105
T03000133





000
SAUS45 KTWC 300354
MTRSAD
METAR KSAD 300351Z AUTO 24004KT 10SM CLR 32/13 A3000 RMK AO2 SLP096
T03170133





000
SAUS45 KTWC 300253
MTRSAD
METAR KSAD 300251Z AUTO 00000KT 10SM CLR 33/12 A2997 RMK AO2 SLP087
T03330122 53000





    US Dept of Commerce
    National Oceanic and Atmospheric Administration
    National Weather Service
    1325 East West Highway
    Silver Spring, MD 20910
    Page Author: NWS Internet Services Team
Disclaimer
Information Quality
Credits
Glossary
Privacy Policy
Freedom of Information Act (FOIA)
About Us
Career Opportunities